createdAt,value
2023-01-31T00:00:23.015Z,48.06
2023-01-31T00:03:11.692Z,48.33
2023-01-31T00:06:11.474Z,47.85
2023-01-31T00:09:01.552Z,48.07
2023-01-31T00:11:50.218Z,47.69
2023-01-31T00:14:39.137Z,48.17
2023-01-31T00:17:27.704Z,47.97
2023-01-31T00:20:16.440Z,48.17
2023-01-31T00:23:06.516Z,47.89
2023-01-31T00:25:55.156Z,47.82
2023-01-31T00:28:44.336Z,47.78
2023-01-31T00:31:34.963Z,47.95
2023-01-31T00:34:24.545Z,47.91
2023-01-31T00:37:13.112Z,47.79
2023-01-31T00:40:04.401Z,48.45
2023-01-31T00:42:53.031Z,47.81
2023-01-31T00:45:41.692Z,48.27
2023-01-31T00:48:31.355Z,48.02
2023-01-31T00:51:20.635Z,47.71
2023-01-31T00:54:09.267Z,47.81
2023-01-31T00:56:59.164Z,47.52
2023-01-31T00:59:48.029Z,47.79
2023-01-31T01:02:36.768Z,47.94
2023-01-31T01:05:25.751Z,47.79
2023-01-31T01:08:14.524Z,47.99
2023-01-31T01:11:23.817Z,47.79
2023-01-31T01:14:13.894Z,47.97
2023-01-31T01:17:02.683Z,47.74
2023-01-31T01:19:51.557Z,48.20
2023-01-31T01:22:40.606Z,47.89
2023-01-31T01:25:29.262Z,47.62
2023-01-31T01:28:17.922Z,48.23
2023-01-31T01:31:09.097Z,47.72
2023-01-31T01:34:29.503Z,47.79
2023-01-31T01:37:21.111Z,47.89
2023-01-31T01:40:11.283Z,47.72
2023-01-31T01:42:59.985Z,48.12
2023-01-31T01:45:48.931Z,47.58
2023-01-31T01:48:39.566Z,48.31
2023-01-31T01:51:29.049Z,48.41
2023-01-31T01:54:20.461Z,48.46
2023-01-31T01:57:09.546Z,48.20
2023-01-31T02:00:06.004Z,48.01
2023-01-31T02:02:59.091Z,48.18
2023-01-31T02:05:51.458Z,48.14
2023-01-31T02:08:41.310Z,48.21
2023-01-31T02:11:32.001Z,48.32
2023-01-31T02:14:20.758Z,48.13
2023-01-31T02:17:13.673Z,48.07
2023-01-31T02:20:13.223Z,48.13
2023-01-31T02:23:19.343Z,48.09
2023-01-31T02:26:33.743Z,48.14
2023-01-31T02:29:34.238Z,48.38
2023-01-31T02:32:44.780Z,48.19
2023-01-31T02:35:43.158Z,48.38
2023-01-31T02:38:56.244Z,48.13
2023-01-31T02:41:49.392Z,47.95
2023-01-31T02:44:59.417Z,48.04
2023-01-31T02:47:57.693Z,48.25
2023-01-31T02:50:49.400Z,48.14
2023-01-31T02:53:42.589Z,48.33
2023-01-31T02:56:32.239Z,48.22
2023-01-31T02:59:26.976Z,48.24
2023-01-31T03:02:15.760Z,48.16
2023-01-31T03:05:06.619Z,48.27
2023-01-31T03:07:57.006Z,48.23
2023-01-31T03:10:59.778Z,48.51
2023-01-31T03:13:54.464Z,48.57
2023-01-31T03:17:05.686Z,48.39
2023-01-31T03:19:59.865Z,48.51
2023-01-31T03:22:51.919Z,48.71
2023-01-31T03:25:41.139Z,48.43
2023-01-31T03:28:31.732Z,48.31
2023-01-31T03:31:21.860Z,48.33
2023-01-31T03:34:12.483Z,48.35
2023-01-31T03:37:07.700Z,48.02
2023-01-31T03:40:01.954Z,48.42
2023-01-31T03:42:53.741Z,48.31
2023-01-31T03:45:47.765Z,48.39
2023-01-31T03:48:40.963Z,47.96
2023-01-31T03:51:30.916Z,48.01
2023-01-31T03:54:22.699Z,48.08
2023-01-31T03:57:17.713Z,48.21
2023-01-31T04:00:09.680Z,48.17
2023-01-31T04:03:02.655Z,47.95
2023-01-31T04:05:51.261Z,48.28
2023-01-31T04:08:40.137Z,48.21
2023-01-31T04:11:29.589Z,47.98
2023-01-31T04:14:20.178Z,47.91
2023-01-31T04:17:08.871Z,47.97
2023-01-31T04:19:57.528Z,47.97
2023-01-31T04:22:46.123Z,48.13
2023-01-31T04:25:34.784Z,48.19
2023-01-31T04:28:23.387Z,48.24
2023-01-31T04:31:13.708Z,48.44
2023-01-31T04:34:02.427Z,48.33
2023-01-31T04:36:50.991Z,48.32
2023-01-31T04:39:39.713Z,48.46
2023-01-31T04:42:28.489Z,48.34
2023-01-31T04:45:17.301Z,48.54
2023-01-31T04:48:08.786Z,48.58
2023-01-31T04:50:57.535Z,49.03
2023-01-31T04:53:46.378Z,49.01
2023-01-31T04:56:35.258Z,48.95
2023-01-31T04:59:23.819Z,48.76
2023-01-31T05:02:15.109Z,48.69
2023-01-31T05:05:05.815Z,48.62
2023-01-31T05:07:54.452Z,48.61
2023-01-31T05:10:43.744Z,48.93
2023-01-31T05:13:32.930Z,48.50
2023-01-31T05:16:21.769Z,48.36
2023-01-31T05:19:10.543Z,48.15
2023-01-31T05:22:00.612Z,48.74
2023-01-31T05:24:49.161Z,48.89
2023-01-31T05:27:37.797Z,48.24
2023-01-31T05:30:26.495Z,48.35
2023-01-31T05:33:15.785Z,48.82
2023-01-31T05:36:05.009Z,48.61
2023-01-31T05:38:55.396Z,48.65
2023-01-31T05:41:44.137Z,48.35
2023-01-31T05:44:33.427Z,49.02
2023-01-31T05:47:23.501Z,48.98
2023-01-31T05:50:13.278Z,48.93
2023-01-31T05:53:03.092Z,49.44
2023-01-31T05:55:54.190Z,49.15
2023-01-31T05:58:42.919Z,48.92
2023-01-31T06:01:32.215Z,48.81
2023-01-31T06:04:20.887Z,49.43
2023-01-31T06:07:09.501Z,48.82
2023-01-31T06:09:58.100Z,48.90
2023-01-31T06:12:48.609Z,48.73
2023-01-31T06:16:02.249Z,48.96
2023-01-31T06:18:51.003Z,48.90
2023-01-31T06:21:39.657Z,48.62
2023-01-31T06:24:28.417Z,48.80
2023-01-31T06:27:16.946Z,49.16
2023-01-31T06:30:07.979Z,48.87
2023-01-31T06:32:56.693Z,49.16
2023-01-31T06:35:45.299Z,48.59
2023-01-31T06:38:33.914Z,48.84
2023-01-31T06:41:22.681Z,48.67
2023-01-31T06:44:11.318Z,48.97
2023-01-31T06:47:01.802Z,48.93
2023-01-31T06:49:50.548Z,48.50
2023-01-31T06:52:39.725Z,49.10
2023-01-31T06:55:28.586Z,49.09
2023-01-31T06:58:20.697Z,48.96
2023-01-31T07:01:10.921Z,49.29
2023-01-31T07:04:01.041Z,49.33
2023-01-31T07:06:49.635Z,49.09
2023-01-31T07:09:38.266Z,49.26
2023-01-31T07:12:26.918Z,48.89
2023-01-31T07:15:15.633Z,48.84
2023-01-31T07:18:04.689Z,48.72
2023-01-31T07:20:54.667Z,48.71
2023-01-31T07:23:45.498Z,48.86
2023-01-31T07:26:34.969Z,48.41
2023-01-31T07:29:23.603Z,48.97
2023-01-31T07:32:12.780Z,48.77
2023-01-31T07:35:01.432Z,48.71
2023-01-31T07:37:53.255Z,48.76
2023-01-31T07:40:42.053Z,48.93
2023-01-31T07:43:31.053Z,48.98
2023-01-31T07:46:20.134Z,48.87
2023-01-31T07:49:11.468Z,49.02
2023-01-31T07:52:00.047Z,48.63
2023-01-31T07:54:50.147Z,48.44
2023-01-31T07:57:38.748Z,48.80
2023-01-31T08:00:45.312Z,48.92
2023-01-31T08:03:34.081Z,49.12
2023-01-31T08:06:22.800Z,48.97
2023-01-31T08:09:11.943Z,48.91
2023-01-31T08:12:01.912Z,49.11
2023-01-31T08:14:50.514Z,49.32
2023-01-31T08:17:39.071Z,48.93
2023-01-31T08:20:30.919Z,49.19
2023-01-31T08:23:19.556Z,48.76
2023-01-31T08:26:10.529Z,49.06
2023-01-31T08:29:00.931Z,48.97
2023-01-31T08:31:51.981Z,49.09
2023-01-31T08:34:40.773Z,48.87
2023-01-31T08:37:30.505Z,48.86
2023-01-31T08:40:19.721Z,48.78
2023-01-31T08:45:58.129Z,48.48
2023-01-31T08:48:46.780Z,48.55
2023-01-31T08:51:35.431Z,49.11
2023-01-31T08:54:24.062Z,49.05
2023-01-31T08:57:12.611Z,49.30
2023-01-31T09:00:01.231Z,49.30
2023-01-31T09:02:54.528Z,48.93
2023-01-31T09:05:43.088Z,49.27
2023-01-31T09:08:32.470Z,49.22
2023-01-31T09:11:22.090Z,49.55
2023-01-31T09:14:10.612Z,49.37
2023-01-31T09:16:59.460Z,49.13
2023-01-31T09:19:50.680Z,49.12
2023-01-31T09:22:39.311Z,49.54
2023-01-31T09:25:43.757Z,49.27
2023-01-31T09:28:36.091Z,49.15
2023-01-31T09:31:24.813Z,49.44
2023-01-31T09:34:13.938Z,49.23
2023-01-31T09:37:03.965Z,49.33
2023-01-31T09:39:52.595Z,48.80
2023-01-31T09:42:45.153Z,49.33
2023-01-31T09:45:35.098Z,49.26
2023-01-31T09:48:26.444Z,49.25
2023-01-31T09:51:16.218Z,49.11
2023-01-31T09:54:10.481Z,49.53
2023-01-31T09:57:08.487Z,49.49
2023-01-31T10:00:01.753Z,49.34
2023-01-31T10:03:23.718Z,49.01
2023-01-31T10:06:19.474Z,49.23
2023-01-31T10:09:13.865Z,49.38
2023-01-31T10:12:07.715Z,49.29
2023-01-31T10:14:58.791Z,49.11
2023-01-31T10:17:49.852Z,49.41
2023-01-31T10:20:41.114Z,49.38
2023-01-31T10:23:32.491Z,49.45
2023-01-31T10:26:25.707Z,49.72
2023-01-31T10:29:18.867Z,49.58
2023-01-31T10:32:13.853Z,49.46
2023-01-31T10:35:04.866Z,49.51
2023-01-31T10:37:56.543Z,49.44
2023-01-31T10:40:47.390Z,49.13
2023-01-31T10:43:41.248Z,49.65
2023-01-31T10:46:30.671Z,49.09
2023-01-31T10:49:20.445Z,49.71
2023-01-31T10:52:14.753Z,49.48
2023-01-31T10:55:26.401Z,49.49
2023-01-31T10:58:17.782Z,49.00
2023-01-31T11:01:12.208Z,49.51
2023-01-31T11:04:01.796Z,49.38
2023-01-31T11:06:50.402Z,49.36
2023-01-31T11:09:42.219Z,49.44
2023-01-31T11:12:45.357Z,49.52
2023-01-31T11:15:38.250Z,49.40
2023-01-31T11:18:34.089Z,49.31
2023-01-31T11:21:24.937Z,49.19
2023-01-31T11:24:19.762Z,49.57
2023-01-31T11:27:11.973Z,49.50
2023-01-31T11:30:01.543Z,49.42
2023-01-31T11:32:50.602Z,49.13
2023-01-31T11:35:40.999Z,49.33
2023-01-31T11:38:29.967Z,49.21
2023-01-31T11:41:33.806Z,49.10
2023-01-31T11:44:24.264Z,48.91
2023-01-31T11:47:14.496Z,49.00
2023-01-31T11:50:03.904Z,49.06
2023-01-31T11:52:58.663Z,49.19
2023-01-31T11:55:48.487Z,49.01
2023-01-31T11:58:39.356Z,49.14
2023-01-31T12:01:28.622Z,49.21
2023-01-31T12:04:20.195Z,49.07
2023-01-31T12:07:23.429Z,48.63
2023-01-31T12:10:29.838Z,48.86
2023-01-31T12:13:20.132Z,49.07
2023-01-31T12:16:09.444Z,49.16
2023-01-31T12:19:09.003Z,48.74
2023-01-31T12:22:03.808Z,48.75
2023-01-31T12:25:00.174Z,48.76
2023-01-31T12:28:01.791Z,48.48
2023-01-31T12:31:11.241Z,48.83
2023-01-31T12:34:10.249Z,48.84
2023-01-31T12:37:11.451Z,48.66
2023-01-31T12:40:24.185Z,48.47
2023-01-31T12:43:25.405Z,48.16
2023-01-31T12:46:19.369Z,48.25
2023-01-31T12:49:28.605Z,48.55
2023-01-31T12:52:21.129Z,48.21
2023-01-31T12:55:19.238Z,48.21
2023-01-31T12:58:20.935Z,48.20
2023-01-31T13:01:12.210Z,48.17
2023-01-31T13:04:12.205Z,48.70
2023-01-31T13:07:05.184Z,48.30
2023-01-31T13:09:54.690Z,48.25
2023-01-31T13:12:43.594Z,48.20
2023-01-31T13:15:42.734Z,48.20
2023-01-31T13:18:32.249Z,48.27
2023-01-31T13:21:23.255Z,48.13
2023-01-31T13:24:13.517Z,47.79
2023-01-31T13:27:05.322Z,47.80
2023-01-31T13:29:59.172Z,47.83
2023-01-31T13:32:51.468Z,48.39
2023-01-31T13:35:42.811Z,48.08
2023-01-31T13:38:38.003Z,48.09
2023-01-31T13:41:30.770Z,47.70
2023-01-31T13:44:20.920Z,47.59
2023-01-31T13:47:16.812Z,47.50
2023-01-31T13:50:12.585Z,48.04
2023-01-31T13:53:03.101Z,47.92
2023-01-31T13:55:52.502Z,48.13
2023-01-31T13:58:42.667Z,47.93
2023-01-31T14:01:34.143Z,48.16
2023-01-31T14:04:26.911Z,48.84
2023-01-31T14:07:26.111Z,48.83
2023-01-31T14:10:38.613Z,48.08
2023-01-31T14:13:43.302Z,48.08
2023-01-31T14:16:40.884Z,47.79
2023-01-31T14:20:03.340Z,48.05
2023-01-31T14:23:31.644Z,47.69
2023-01-31T14:26:35.527Z,47.42
2023-01-31T14:29:26.696Z,47.34
2023-01-31T14:32:17.644Z,47.64
2023-01-31T14:35:25.912Z,47.71
2023-01-31T14:38:20.379Z,47.80
2023-01-31T14:41:18.136Z,48.24
2023-01-31T14:44:17.041Z,48.01
2023-01-31T14:47:12.430Z,48.04
2023-01-31T14:50:31.366Z,48.08
2023-01-31T14:53:30.852Z,47.82
2023-01-31T14:56:34.642Z,47.84
2023-01-31T14:59:30.625Z,47.86
2023-01-31T15:02:44.570Z,47.78
2023-01-31T15:05:45.633Z,47.51
2023-01-31T15:09:12.983Z,47.73
2023-01-31T15:12:02.991Z,47.31
2023-01-31T15:14:51.736Z,46.12
2023-01-31T15:17:44.302Z,46.62
2023-01-31T15:20:40.019Z,47.12
2023-01-31T15:23:30.863Z,47.50
2023-01-31T15:26:20.772Z,47.45
2023-01-31T15:29:18.406Z,47.07
2023-01-31T15:32:13.939Z,47.13
2023-01-31T15:35:07.017Z,47.02
2023-01-31T15:37:58.779Z,46.75
2023-01-31T15:40:47.380Z,47.18
2023-01-31T15:43:38.874Z,47.04
2023-01-31T15:46:31.545Z,46.68
2023-01-31T15:49:38.526Z,46.94
2023-01-31T15:52:34.282Z,46.91
2023-01-31T15:55:23.263Z,46.74
2023-01-31T15:58:19.602Z,46.82
2023-01-31T16:01:08.714Z,46.51
2023-01-31T16:04:00.134Z,46.56
2023-01-31T16:06:48.997Z,46.15
2023-01-31T16:09:38.676Z,46.94
2023-01-31T16:12:27.711Z,46.61
2023-01-31T16:15:21.041Z,46.66
2023-01-31T16:18:12.515Z,46.25
2023-01-31T16:21:15.427Z,46.29
2023-01-31T16:24:05.648Z,46.00
2023-01-31T16:26:58.867Z,46.33
2023-01-31T16:29:49.007Z,45.84
2023-01-31T16:32:41.922Z,45.89
2023-01-31T16:35:31.066Z,45.71
2023-01-31T16:38:26.699Z,45.77
2023-01-31T16:41:15.681Z,45.72
2023-01-31T16:44:06.211Z,45.65
2023-01-31T16:46:55.608Z,45.60
2023-01-31T16:49:44.322Z,45.40
2023-01-31T16:52:32.926Z,45.69
2023-01-31T16:55:24.353Z,45.92
2023-01-31T16:58:13.794Z,45.84
2023-01-31T17:01:12.192Z,46.51
2023-01-31T17:04:04.685Z,46.68
2023-01-31T17:07:03.259Z,46.51
2023-01-31T17:09:55.633Z,45.64
2023-01-31T17:12:45.956Z,46.41
2023-01-31T17:15:34.805Z,46.57
2023-01-31T17:18:23.537Z,46.53
2023-01-31T17:21:13.842Z,46.33
2023-01-31T17:24:03.730Z,45.96
2023-01-31T17:26:53.993Z,46.05
2023-01-31T17:29:45.679Z,46.55
2023-01-31T17:32:34.358Z,46.05
2023-01-31T17:35:26.522Z,46.06
2023-01-31T17:38:15.148Z,46.96
2023-01-31T17:41:04.238Z,46.86
2023-01-31T17:43:53.028Z,47.09
2023-01-31T17:46:43.389Z,46.85
2023-01-31T17:49:32.077Z,46.61
2023-01-31T17:52:20.723Z,46.13
2023-01-31T17:55:10.136Z,46.03
2023-01-31T17:57:58.734Z,45.85
2023-01-31T18:00:47.782Z,45.48
2023-01-31T18:03:38.068Z,45.51
2023-01-31T18:06:26.656Z,45.66
2023-01-31T18:09:18.549Z,45.33
2023-01-31T18:12:07.619Z,45.48
2023-01-31T18:14:56.208Z,45.98
2023-01-31T18:17:44.825Z,46.19
2023-01-31T18:20:34.788Z,46.17
2023-01-31T18:23:23.386Z,46.37
2023-01-31T18:26:13.313Z,46.44
2023-01-31T18:29:02.026Z,46.86
2023-01-31T18:31:52.704Z,46.93
2023-01-31T18:34:41.539Z,46.77
2023-01-31T18:37:31.785Z,46.93
2023-01-31T18:40:20.435Z,46.93
2023-01-31T18:43:09.707Z,46.28
2023-01-31T18:45:58.259Z,46.06
2023-01-31T18:48:47.019Z,45.97
2023-01-31T18:51:35.778Z,45.91
2023-01-31T18:54:26.284Z,46.17
2023-01-31T18:57:14.904Z,46.19
2023-01-31T19:00:03.832Z,45.98
2023-01-31T19:02:52.915Z,45.69
2023-01-31T19:05:41.502Z,45.72
2023-01-31T19:08:30.169Z,45.94
2023-01-31T19:11:22.393Z,45.77
2023-01-31T19:14:13.965Z,46.12
2023-01-31T19:17:02.573Z,45.82
2023-01-31T19:19:51.438Z,45.95
2023-01-31T19:22:40.077Z,45.57
2023-01-31T19:25:28.749Z,45.97
2023-01-31T19:28:22.750Z,45.75
2023-01-31T19:31:13.406Z,45.69
2023-01-31T19:34:03.882Z,45.76
2023-01-31T19:36:52.562Z,45.87
2023-01-31T19:39:41.233Z,46.09
2023-01-31T19:42:30.417Z,46.12
2023-01-31T19:45:24.512Z,45.72
2023-01-31T19:48:13.246Z,45.96
2023-01-31T19:51:07.963Z,46.80
2023-01-31T19:53:59.039Z,46.45
2023-01-31T19:56:47.701Z,46.82
2023-01-31T19:59:36.313Z,46.96
2023-01-31T20:02:26.590Z,46.87
2023-01-31T20:05:15.229Z,46.71
2023-01-31T20:08:03.985Z,46.88
2023-01-31T20:10:55.560Z,47.49
2023-01-31T20:13:44.262Z,47.07
2023-01-31T20:16:32.980Z,46.63
2023-01-31T20:19:23.502Z,46.59
2023-01-31T20:22:12.186Z,46.85
2023-01-31T20:25:01.037Z,46.33
2023-01-31T20:27:50.426Z,46.98
2023-01-31T20:30:39.066Z,46.71
2023-01-31T20:33:27.781Z,46.72
2023-01-31T20:36:18.835Z,46.66
2023-01-31T20:39:07.442Z,46.50
2023-01-31T20:41:56.949Z,46.64
2023-01-31T20:44:45.594Z,46.51
2023-01-31T20:47:34.218Z,47.47
2023-01-31T20:50:23.354Z,47.39
2023-01-31T20:53:19.380Z,47.28
2023-01-31T20:56:09.759Z,47.03
2023-01-31T20:58:58.365Z,46.59
2023-01-31T21:01:47.743Z,46.90
2023-01-31T21:04:36.352Z,47.10
2023-01-31T21:07:24.953Z,46.95
2023-01-31T21:10:15.150Z,47.22
2023-01-31T21:13:03.810Z,46.65
2023-01-31T21:15:53.134Z,46.66
2023-01-31T21:18:44.110Z,46.95
2023-01-31T21:21:33.356Z,46.52
2023-01-31T21:24:21.943Z,47.64
2023-01-31T21:27:12.389Z,44.46
2023-01-31T21:30:01.098Z,38.48
2023-01-31T21:32:49.653Z,36.49
2023-01-31T21:35:38.273Z,36.56
2023-01-31T21:38:27.108Z,36.13
2023-01-31T21:41:34.371Z,34.93
2023-01-31T21:44:24.491Z,34.27
2023-01-31T21:47:13.914Z,34.30
2023-01-31T21:50:02.511Z,33.94
2023-01-31T21:52:51.130Z,33.35
2023-01-31T21:55:39.763Z,33.81
2023-01-31T21:58:33.216Z,35.99
2023-01-31T22:01:25.184Z,39.12
2023-01-31T22:04:14.471Z,41.55
2023-01-31T22:07:03.205Z,41.81
2023-01-31T22:09:51.899Z,42.10
2023-01-31T22:12:40.627Z,42.56
2023-01-31T22:15:31.485Z,43.16
2023-01-31T22:18:21.409Z,43.49
2023-01-31T22:21:12.589Z,43.35
2023-01-31T22:24:02.662Z,43.94
2023-01-31T22:26:51.764Z,44.27
2023-01-31T22:29:41.469Z,44.50
2023-01-31T22:32:30.750Z,44.98
2023-01-31T22:35:21.553Z,44.87
2023-01-31T22:38:10.916Z,44.95
2023-01-31T22:41:01.016Z,45.60
2023-01-31T22:43:50.836Z,45.83
2023-01-31T22:46:39.576Z,45.84
2023-01-31T22:49:28.236Z,45.78
2023-01-31T22:52:18.380Z,46.63
2023-01-31T22:55:07.616Z,46.37
2023-01-31T22:57:58.228Z,46.44
2023-01-31T23:00:47.373Z,46.45
2023-01-31T23:03:36.168Z,46.79
2023-01-31T23:06:25.078Z,47.07
2023-01-31T23:09:15.083Z,47.09
2023-01-31T23:12:03.618Z,47.49
2023-01-31T23:14:52.239Z,47.66
2023-01-31T23:17:41.447Z,47.48
2023-01-31T23:20:30.354Z,47.63
2023-01-31T23:23:18.987Z,47.75
2023-01-31T23:26:12.066Z,48.15
2023-01-31T23:29:00.640Z,47.52
2023-01-31T23:31:49.288Z,47.83
2023-01-31T23:34:38.157Z,48.05
2023-01-31T23:37:26.999Z,48.17
2023-01-31T23:40:15.644Z,48.49
2023-01-31T23:43:05.628Z,48.20
2023-01-31T23:45:54.368Z,47.67
2023-01-31T23:48:43.321Z,48.27
2023-01-31T23:51:33.647Z,48.30
2023-01-31T23:54:22.208Z,48.13
2023-01-31T23:57:11.199Z,48.59
